Time;durP1;ratioP1;P1;durP2;ratioP2;P2;SDS_P1;SDS_P2;PMS_P1;PMS_P2;Temp;Humidity;BMP_temperature;BMP_pressure;BME280_temperature;BME280_humidity;BME280_pressure;Samples;Min_cycle;Max_cycle;Signal;HPM_P1;HPM_P2
2023/05/24 00:01:25;;;;;;;33.60;22.93;;;15.50;99.90;;;;;;4420775;28;660939;-72
2023/05/24 00:04:13;;;;;;;30.77;22.90;;;15.50;99.90;;;;;;4440816;28;661751;-72
2023/05/24 00:07:02;;;;;;;33.07;22.47;;;15.60;99.90;;;;;;4419969;28;661595;-71
2023/05/24 00:09:50;;;;;;;35.17;22.80;;;15.50;99.90;;;;;;4435992;28;660640;-72
2023/05/24 00:12:37;;;;;;;30.90;22.43;;;15.60;99.90;;;;;;4413090;28;661474;-71
2023/05/24 00:15:25;;;;;;;36.60;22.30;;;15.60;99.90;;;;;;4430108;28;660917;-71
2023/05/24 00:18:12;;;;;;;34.17;23.27;;;15.60;99.90;;;;;;4442238;28;661477;-71
2023/05/24 00:21:00;;;;;;;37.73;23.10;;;15.50;99.90;;;;;;4434190;28;661045;-72
2023/05/24 00:23:50;;;;;;;37.93;23.97;;;15.50;99.90;;;;;;4443932;28;660667;-72
2023/05/24 00:26:39;;;;;;;33.73;23.90;;;15.50;99.90;;;;;;4408416;28;661487;-71
2023/05/24 00:29:26;;;;;;;36.60;25.30;;;15.60;99.90;;;;;;4415556;28;660953;-71
2023/05/24 00:32:13;;;;;;;36.23;25.33;;;15.50;99.90;;;;;;4438284;28;661409;-71
2023/05/24 00:35:00;;;;;;;36.30;25.70;;;15.50;99.90;;;;;;4417938;28;661330;-71
2023/05/24 00:37:47;;;;;;;41.07;27.33;;;15.50;99.90;;;;;;4443450;28;660845;-71
2023/05/24 00:40:35;;;;;;;47.50;29.10;;;15.40;99.90;;;;;;4435944;28;660517;-71
2023/05/24 00:43:24;;;;;;;39.33;27.60;;;15.30;99.90;;;;;;4426582;28;661936;-71
2023/05/24 00:46:15;;;;;;;41.50;27.70;;;15.40;99.90;;;;;;4413971;28;660813;-71
2023/05/24 00:49:02;;;;;;;39.43;28.23;;;15.40;99.90;;;;;;4414275;28;660830;-71
2023/05/24 00:51:50;;;;;;;40.13;28.67;;;15.40;99.90;;;;;;4439863;28;660170;-71
2023/05/24 00:54:39;;;;;;;41.00;29.57;;;15.40;99.90;;;;;;4417659;28;661967;-71
2023/05/24 00:57:26;;;;;;;44.73;29.00;;;15.40;99.90;;;;;;4418319;28;660963;-71
2023/05/24 01:00:15;;;;;;;42.37;28.90;;;15.40;99.90;;;;;;4431181;28;660669;-71
2023/05/24 01:03:04;;;;;;;44.33;30.30;;;15.40;99.90;;;;;;4413988;28;663217;-71
2023/05/24 01:05:51;;;;;;;44.17;31.13;;;15.40;99.90;;;;;;4420737;28;661215;-71
2023/05/24 01:08:43;;;;;;;46.20;31.17;;;15.40;99.90;;;;;;4438429;28;661802;-71
2023/05/24 01:11:35;;;;;;;46.17;30.10;;;15.40;99.90;;;;;;4416327;28;660937;-71
2023/05/24 01:14:26;;;;;;;53.37;32.10;;;15.40;99.90;;;;;;4417252;28;661733;-71
2023/05/24 01:17:17;;;;;;;49.77;33.03;;;15.30;99.90;;;;;;4410255;28;661438;-71
2023/05/24 01:20:07;;;;;;;56.95;36.80;;;15.30;99.90;;;;;;4412413;28;661180;-71
2023/05/24 01:23:06;;;;;;;55.07;34.77;;;15.30;99.90;;;;;;4414006;28;661092;-71
2023/05/24 01:26:17;;;;;;;58.97;36.67;;;15.20;99.90;;;;;;4413132;28;661385;-71
2023/05/24 01:29:06;;;;;;;60.03;36.30;;;15.20;99.90;;;;;;4414935;28;661411;-71
2023/05/24 01:31:53;;;;;;;55.73;36.10;;;15.20;99.90;;;;;;4403015;28;661375;-71
2023/05/24 01:34:40;;;;;;;61.17;36.83;;;15.20;99.90;;;;;;4415765;28;661044;-71
2023/05/24 01:37:27;;;;;;;61.07;37.20;;;15.30;99.90;;;;;;4432592;28;662202;-71
2023/05/24 01:40:15;;;;;;;56.67;36.70;;;15.30;99.90;;;;;;4436781;28;660758;-71
2023/05/24 01:43:04;;;;;;;55.57;34.83;;;15.30;99.90;;;;;;4436560;28;662148;-71
2023/05/24 01:46:00;;;;;;;58.20;36.53;;;15.20;99.90;;;;;;4418963;28;661218;-71
2023/05/24 01:48:51;;;;;;;59.93;35.67;;;15.30;99.90;;;;;;4376586;28;661358;-71
2023/05/24 01:51:40;;;;;;;55.97;35.10;;;15.20;99.90;;;;;;4411092;28;661535;-71
2023/05/24 01:54:28;;;;;;;54.07;34.87;;;15.20;99.90;;;;;;4416101;28;660788;-72
2023/05/24 01:57:15;;;;;;;60.47;34.20;;;15.20;99.90;;;;;;4414593;28;660671;-71
2023/05/24 02:00:04;;;;;;;55.73;34.97;;;15.10;99.90;;;;;;4436551;28;662694;-71
2023/05/24 02:02:52;;;;;;;50.37;32.07;;;15.10;99.90;;;;;;4418055;28;660784;-71
2023/05/24 02:05:40;;;;;;;57.50;34.37;;;15.20;99.90;;;;;;4425265;28;660511;-71
2023/05/24 02:08:27;;;;;;;52.47;33.67;;;15.10;99.90;;;;;;4437382;28;661212;-71
2023/05/24 02:11:15;;;;;;;54.27;34.87;;;15.10;99.90;;;;;;4437270;28;660822;-72
2023/05/24 02:14:02;;;;;;;52.97;33.92;;;15.10;99.90;;;;;;4437742;28;660547;-71
2023/05/24 02:16:49;;;;;;;63.97;36.03;;;15.10;99.90;;;;;;4437086;28;660296;-72
2023/05/24 02:19:38;;;;;;;59.77;39.07;;;15.00;99.90;;;;;;4416669;28;661962;-71
2023/05/24 02:22:25;;;;;;;66.23;40.07;;;15.10;99.90;;;;;;4417365;28;660617;-71
2023/05/24 02:25:13;;;;;;;70.60;42.77;;;15.10;99.90;;;;;;4425494;28;662093;-71
2023/05/24 02:28:00;;;;;;;66.83;39.77;;;15.00;99.90;;;;;;4430389;28;661139;-72
2023/05/24 02:30:47;;;;;;;61.20;37.60;;;15.10;99.90;;;;;;4441381;28;660378;-71
2023/05/24 02:33:35;;;;;;;58.67;36.27;;;15.10;99.90;;;;;;4435687;28;660409;-71
2023/05/24 02:36:23;;;;;;;55.23;35.70;;;15.00;99.90;;;;;;4415083;28;662052;-71
2023/05/24 02:39:11;;;;;;;66.07;35.10;;;15.00;99.90;;;;;;4421529;28;660933;-72
2023/05/24 02:41:58;;;;;;;57.53;34.07;;;14.90;99.90;;;;;;4433603;28;661513;-72
2023/05/24 02:44:47;;;;;;;48.77;31.93;;;14.90;99.90;;;;;;4421843;28;660680;-72
2023/05/24 02:47:34;;;;;;;48.13;30.27;;;14.80;99.90;;;;;;4440583;28;660712;-71
2023/05/24 02:50:22;;;;;;;42.70;29.23;;;14.70;99.90;;;;;;4418211;28;661244;-71
2023/05/24 02:53:10;;;;;;;44.87;27.63;;;14.70;99.90;;;;;;4442704;28;659749;-71
2023/05/24 02:55:58;;;;;;;45.20;27.50;;;14.60;99.90;;;;;;4415487;28;662006;-71
2023/05/24 02:58:45;;;;;;;41.50;27.37;;;14.60;99.90;;;;;;4430316;28;660992;-72
2023/05/24 03:01:34;;;;;;;39.77;27.03;;;14.60;99.90;;;;;;4446769;28;661522;-71
2023/05/24 03:04:21;;;;;;;43.13;27.20;;;14.60;99.90;;;;;;4419016;28;661188;-71
2023/05/24 03:07:09;;;;;;;45.90;28.80;;;14.60;99.90;;;;;;4440892;28;661108;-71
2023/05/24 03:09:58;;;;;;;61.53;33.70;;;14.60;99.90;;;;;;4419342;28;660376;-71
2023/05/24 03:12:45;;;;;;;48.10;29.93;;;14.50;99.90;;;;;;4429950;28;661064;-72
2023/05/24 03:15:32;;;;;;;52.07;30.67;;;14.50;99.90;;;;;;4429726;28;661888;-71
2023/05/24 03:18:20;;;;;;;64.87;35.10;;;14.50;99.90;;;;;;4439311;28;660725;-71
2023/05/24 03:21:08;;;;;;;66.03;35.90;;;14.50;99.90;;;;;;4445568;28;661652;-71
2023/05/24 03:23:55;;;;;;;62.93;36.10;;;14.30;99.90;;;;;;4430481;28;660518;-71
2023/05/24 03:26:44;;;;;;;56.20;35.17;;;14.40;99.90;;;;;;4442350;28;661581;-72
2023/05/24 03:29:31;;;;;;;60.63;35.60;;;14.40;99.90;;;;;;4419417;28;661593;-71
2023/05/24 03:32:18;;;;;;;58.80;34.20;;;14.40;99.90;;;;;;4429125;28;661631;-71
2023/05/24 03:35:06;;;;;;;75.37;39.07;;;14.30;99.90;;;;;;4417869;28;661454;-71
2023/05/24 03:37:53;;;;;;;66.93;38.60;;;14.40;99.90;;;;;;4427233;28;660967;-71
2023/05/24 03:40:41;;;;;;;74.17;41.93;;;14.40;99.90;;;;;;4417914;28;661533;-71
2023/05/24 03:43:29;;;;;;;75.73;42.97;;;14.40;99.90;;;;;;4440724;28;661665;-71
2023/05/24 03:46:16;;;;;;;78.40;43.50;;;14.40;99.90;;;;;;4417849;28;660617;-71
2023/05/24 03:49:04;;;;;;;82.43;44.00;;;14.40;99.90;;;;;;4436056;28;660912;-71
2023/05/24 03:51:51;;;;;;;93.90;50.73;;;14.40;99.90;;;;;;4418549;28;660808;-71
2023/05/24 03:54:38;;;;;;;98.23;51.17;;;14.30;99.90;;;;;;4432724;28;661637;-71
2023/05/24 03:57:25;;;;;;;101.90;51.47;;;14.30;99.90;;;;;;4417267;28;661280;-72
2023/05/24 04:00:14;;;;;;;106.47;53.47;;;14.30;99.90;;;;;;4435394;28;663101;-72
2023/05/24 04:03:02;;;;;;;104.13;55.73;;;14.30;99.90;;;;;;4417538;28;661641;-71
2023/05/24 04:05:49;;;;;;;106.80;57.73;;;14.30;99.90;;;;;;4430299;28;661544;-71
2023/05/24 04:08:36;;;;;;;104.70;57.23;;;14.30;99.90;;;;;;4415031;28;662974;-71
2023/05/24 04:11:26;;;;;;;110.00;55.20;;;14.40;99.90;;;;;;4430106;28;661527;-71
2023/05/24 04:14:14;;;;;;;125.23;56.70;;;14.40;99.90;;;;;;4418054;28;661835;-71
2023/05/24 04:17:04;;;;;;;101.60;51.83;;;14.30;99.90;;;;;;4419948;28;661998;-71
2023/05/24 04:19:51;;;;;;;103.75;51.55;;;14.40;99.90;;;;;;4415100;28;661675;-71
2023/05/24 04:22:38;;;;;;;104.33;50.70;;;14.40;99.90;;;;;;4405773;28;662370;-71
2023/05/24 04:25:26;;;;;;;98.33;48.43;;;14.40;99.90;;;;;;4382349;28;661800;-72
2023/05/24 04:28:14;;;;;;;82.37;42.53;;;14.30;99.90;;;;;;4403586;28;661592;-71
2023/05/24 04:31:02;;;;;;;71.50;39.23;;;14.30;99.90;;;;;;4385365;28;660720;-71
2023/05/24 04:33:51;;;;;;;70.87;35.57;;;14.40;99.90;;;;;;4407959;28;661825;-71
2023/05/24 04:36:38;;;;;;;64.60;34.43;;;14.50;99.90;;;;;;4383892;28;661743;-71
2023/05/24 04:39:25;;;;;;;59.53;31.57;;;14.40;99.90;;;;;;4387015;28;660972;-71
2023/05/24 04:42:13;;;;;;;59.93;30.53;;;14.50;99.90;;;;;;4410658;28;662509;-71
2023/05/24 04:45:00;;;;;;;60.65;31.15;;;14.60;99.90;;;;;;4381723;28;660712;-72
2023/05/24 04:47:47;;;;;;;71.97;34.67;;;14.50;99.90;;;;;;4407215;28;660453;-71
2023/05/24 04:50:36;;;;;;;65.20;33.83;;;14.50;99.90;;;;;;4405105;28;660774;-71
2023/05/24 04:53:23;;;;;;;68.17;36.07;;;14.60;99.90;;;;;;4380589;28;660943;-71
2023/05/24 04:56:13;;;;;;;75.80;37.53;;;14.60;99.90;;;;;;4385869;28;660439;-71
2023/05/24 04:59:01;;;;;;;59.63;33.80;;;14.60;99.90;;;;;;4387423;28;661314;-71
2023/05/24 05:01:48;;;;;;;56.17;32.50;;;14.60;99.90;;;;;;4400519;28;661680;-71
2023/05/24 05:04:35;;;;;;;49.47;29.53;;;14.60;99.90;;;;;;4384909;28;664144;-71
2023/05/24 05:07:24;;;;;;;44.73;27.37;;;14.60;99.90;;;;;;4403759;28;662537;-71
2023/05/24 05:10:11;;;;;;;45.73;26.57;;;14.70;99.90;;;;;;4386605;28;660860;-72
2023/05/24 05:12:58;;;;;;;40.40;24.73;;;14.60;99.90;;;;;;4404069;28;660496;-71
2023/05/24 05:15:45;;;;;;;36.73;24.33;;;14.60;99.90;;;;;;4386929;28;661238;-71
2023/05/24 05:18:33;;;;;;;39.40;24.97;;;14.70;99.90;;;;;;4396586;28;660988;-71
2023/05/24 05:21:20;;;;;;;38.08;24.77;;;14.70;99.90;;;;;;4407856;28;660969;-72
2023/05/24 05:24:09;;;;;;;36.27;23.13;;;14.80;99.90;;;;;;4433281;28;661808;-72
2023/05/24 05:26:56;;;;;;;39.77;24.93;;;14.80;99.90;;;;;;4416758;28;661061;-72
2023/05/24 05:29:43;;;;;;;32.70;22.60;;;14.80;99.90;;;;;;4434548;28;662052;-72
2023/05/24 05:32:30;;;;;;;42.30;23.10;;;14.80;99.90;;;;;;4419033;28;660567;-71
2023/05/24 05:35:18;;;;;;;35.60;22.37;;;14.80;99.90;;;;;;4425564;28;662014;-72
2023/05/24 05:38:05;;;;;;;39.83;23.60;;;14.80;99.90;;;;;;4431333;28;662528;-72
2023/05/24 05:40:54;;;;;;;39.30;25.07;;;14.80;99.90;;;;;;4438813;28;661143;-70
2023/05/24 05:43:41;;;;;;;41.63;27.47;;;14.80;99.90;;;;;;4406431;28;660802;-70
2023/05/24 05:46:28;;;;;;;46.27;26.40;;;15.00;99.90;;;;;;4438846;28;661707;-71
2023/05/24 05:49:17;;;;;;;42.83;24.27;;;15.10;99.90;;;;;;4415533;28;660901;-71
2023/05/24 05:52:04;;;;;;;37.93;25.90;;;15.20;99.90;;;;;;4439318;28;661050;-71
2023/05/24 05:54:52;;;;;;;34.97;22.90;;;15.20;99.90;;;;;;4414508;28;662165;-71
2023/05/24 05:57:41;;;;;;;33.47;21.57;;;15.10;99.90;;;;;;4436306;28;661100;-71
2023/05/24 06:00:29;;;;;;;33.93;22.70;;;15.10;99.90;;;;;;4418278;28;661059;-72
2023/05/24 06:03:16;;;;;;;31.77;20.47;;;15.00;99.90;;;;;;4416588;28;661211;-72
2023/05/24 06:06:03;;;;;;;39.20;23.77;;;15.00;99.90;;;;;;4440505;28;662235;-72
2023/05/24 06:08:50;;;;;;;37.13;24.67;;;15.00;99.90;;;;;;4422916;28;660823;-73
2023/05/24 06:11:38;;;;;;;33.47;22.53;;;14.80;99.90;;;;;;4443960;28;661934;-75
2023/05/24 06:14:27;;;;;;;36.40;21.83;;;14.90;99.90;;;;;;4421606;28;661665;-74
2023/05/24 06:17:14;;;;;;;29.90;20.87;;;14.90;99.90;;;;;;4431937;28;661227;-75
2023/05/24 06:20:05;;;;;;;30.27;19.30;;;14.80;99.90;;;;;;4424249;28;661133;-74
2023/05/24 06:22:52;;;;;;;35.83;21.03;;;14.80;99.90;;;;;;4416119;28;661731;-75
2023/05/24 06:25:42;;;;;;;39.67;23.50;;;14.70;99.90;;;;;;4445027;28;662142;-78
2023/05/24 06:28:29;;;;;;;43.23;25.43;;;14.40;99.90;;;;;;4416916;28;661324;-78
2023/05/24 06:31:18;;;;;;;42.17;25.27;;;14.20;99.90;;;;;;4425551;28;660959;-76
2023/05/24 06:34:05;;;;;;;41.25;25.35;;;13.90;99.90;;;;;;4413650;28;660519;-75
2023/05/24 06:36:52;;;;;;;43.50;26.33;;;13.90;99.90;;;;;;4437442;28;661594;-77
2023/05/24 06:39:39;;;;;;;40.23;23.90;;;13.70;99.90;;;;;;4439314;28;660464;-75
2023/05/24 06:42:27;;;;;;;38.87;23.27;;;13.70;99.90;;;;;;4419755;28;660728;-76
2023/05/24 06:45:14;;;;;;;40.13;23.50;;;13.60;99.90;;;;;;4429504;28;660885;-80
2023/05/24 06:48:03;;;;;;;43.73;24.17;;;13.40;99.90;;;;;;4421321;28;661037;-78
2023/05/24 06:50:50;;;;;;;41.13;24.53;;;13.50;99.90;;;;;;4406525;28;661019;-75
2023/05/24 06:53:37;;;;;;;43.00;24.23;;;13.40;99.90;;;;;;4446683;28;661407;-77
2023/05/24 06:56:25;;;;;;;37.83;23.40;;;13.30;99.90;;;;;;4444549;28;660467;-75
2023/05/24 06:59:12;;;;;;;38.63;21.50;;;13.20;99.90;;;;;;4443758;28;661455;-76
2023/05/24 07:02:00;;;;;;;35.70;22.23;;;13.10;99.90;;;;;;4436594;28;661022;-76
2023/05/24 07:04:49;;;;;;;32.50;20.03;;;13.20;99.90;;;;;;4449858;28;661771;-77
2023/05/24 07:07:36;;;;;;;30.67;18.43;;;13.10;99.90;;;;;;4409270;28;661665;-77
2023/05/24 07:10:23;;;;;;;29.17;16.92;;;13.20;99.90;;;;;;4435650;28;662162;-79
2023/05/24 07:13:12;;;;;;;24.77;13.97;;;13.20;99.90;;;;;;4415569;28;660920;-79
2023/05/24 07:15:59;;;;;;;20.23;13.17;;;13.10;99.90;;;;;;4443965;28;660977;-78
2023/05/24 07:18:46;;;;;;;23.60;15.73;;;13.10;99.90;;;;;;4418544;28;661335;-79
2023/05/24 07:21:36;;;;;;;27.33;15.10;;;13.10;99.90;;;;;;4436343;28;660623;-76
2023/05/24 07:24:23;;;;;;;19.97;12.80;;;13.10;99.90;;;;;;4409131;28;661684;-75
2023/05/24 07:27:10;;;;;;;21.55;13.18;;;13.10;99.90;;;;;;4422301;28;660466;-75
2023/05/24 07:29:57;;;;;;;23.97;15.43;;;13.10;99.90;;;;;;4439513;28;661786;-77
2023/05/24 07:32:45;;;;;;;25.50;14.10;;;13.00;99.90;;;;;;4435831;28;663014;-74
2023/05/24 07:35:32;;;;;;;28.27;14.87;;;12.80;99.90;;;;;;4439208;28;662487;-77
2023/05/24 07:38:22;;;;;;;29.73;16.23;;;12.70;99.90;;;;;;4434106;28;661134;-75
2023/05/24 07:41:09;;;;;;;28.10;15.67;;;12.80;99.90;;;;;;4431931;28;660457;-75
2023/05/24 07:43:56;;;;;;;28.60;16.80;;;12.80;99.90;;;;;;4420902;28;661295;-77
2023/05/24 07:46:43;;;;;;;32.00;16.43;;;12.70;99.90;;;;;;4443231;28;661465;-78
2023/05/24 07:49:30;;;;;;;27.73;14.47;;;12.70;99.90;;;;;;4410678;28;661024;-75
2023/05/24 07:52:17;;;;;;;31.50;16.70;;;12.50;99.90;;;;;;4428315;28;661587;-76
2023/05/24 07:55:08;;;;;;;28.60;15.97;;;12.40;99.90;;;;;;4430774;28;661039;-77
2023/05/24 07:57:55;;;;;;;32.53;13.43;;;12.50;99.90;;;;;;4435175;28;660752;-74
2023/05/24 08:00:42;;;;;;;35.43;16.60;;;12.60;99.90;;;;;;4435689;28;661347;-75
2023/05/24 08:03:31;;;;;;;35.10;17.20;;;12.60;99.90;;;;;;4434357;28;661078;-76
2023/05/24 08:06:18;;;;;;;32.17;17.33;;;12.70;99.90;;;;;;4439431;28;660844;-74
2023/05/24 08:09:07;;;;;;;29.63;16.23;;;12.70;99.90;;;;;;4419505;28;661472;-74
2023/05/24 08:11:56;;;;;;;40.07;18.57;;;12.60;99.90;;;;;;4437288;28;660778;-77
2023/05/24 08:14:43;;;;;;;38.87;17.60;;;12.60;99.90;;;;;;4415322;28;661581;-77
2023/05/24 08:17:30;;;;;;;38.07;17.77;;;12.50;99.90;;;;;;4420623;28;660607;-75
2023/05/24 08:20:17;;;;;;;37.43;17.47;;;12.60;99.90;;;;;;4437376;28;661158;-78
2023/05/24 08:23:05;;;;;;;36.93;18.13;;;12.70;99.90;;;;;;4437482;28;660726;-75
2023/05/24 08:25:53;;;;;;;33.57;17.53;;;12.70;99.90;;;;;;4444768;28;661791;-79
2023/05/24 08:28:42;;;;;;;35.30;16.63;;;12.70;99.90;;;;;;4417440;28;661762;-76
2023/05/24 08:31:29;;;;;;;34.00;16.90;;;12.80;99.90;;;;;;4441154;28;660799;-77
2023/05/24 08:34:16;;;;;;;36.40;16.80;;;12.90;99.90;;;;;;4405463;28;661265;-77
2023/05/24 08:37:04;;;;;;;31.03;15.27;;;12.90;99.90;;;;;;4424402;28;660806;-78
2023/05/24 08:39:51;;;;;;;31.17;15.73;;;12.80;99.90;;;;;;4420426;28;660509;-77
2023/05/24 08:42:39;;;;;;;30.92;16.48;;;12.90;99.90;;;;;;4439966;28;661636;-79
2023/05/24 08:45:29;;;;;;;26.97;14.90;;;12.90;99.90;;;;;;4419847;28;660661;-76
2023/05/24 08:48:17;;;;;;;34.50;16.43;;;12.80;99.90;;;;;;4422060;28;661523;-76
2023/05/24 08:51:04;;;;;;;41.37;17.27;;;12.70;99.90;;;;;;4439372;28;660668;-79
2023/05/24 08:53:53;;;;;;;30.73;16.40;;;12.60;99.90;;;;;;4421650;28;661180;-77
2023/05/24 08:56:40;;;;;;;35.17;15.30;;;12.60;99.90;;;;;;4424122;28;661286;-75
2023/05/24 08:59:27;;;;;;;29.50;14.93;;;12.70;99.90;;;;;;4436070;28;661737;-74
2023/05/24 09:02:16;;;;;;;27.53;15.30;;;12.60;99.90;;;;;;4432372;28;660389;-78
2023/05/24 09:05:03;;;;;;;33.83;14.67;;;12.60;99.90;;;;;;4420146;28;660851;-79
2023/05/24 09:07:50;;;;;;;47.37;14.80;;;12.60;99.90;;;;;;4418946;28;660881;-77
2023/05/24 09:10:37;;;;;;;41.63;15.13;;;12.40;99.90;;;;;;4437771;28;662345;-77
2023/05/24 09:13:25;;;;;;;26.93;13.73;;;12.40;99.90;;;;;;4434190;28;660572;-73
2023/05/24 09:16:13;;;;;;;31.47;14.77;;;12.40;99.90;;;;;;4423991;28;662181;-76
2023/05/24 09:19:03;;;;;;;34.20;14.70;;;12.40;99.90;;;;;;4417952;28;660856;-75
2023/05/24 09:21:52;;;;;;;32.80;15.73;;;12.40;99.90;;;;;;4426929;28;660195;-74
2023/05/24 09:24:41;;;;;;;27.13;14.97;;;12.50;99.90;;;;;;4438820;28;660451;-75
2023/05/24 09:27:28;;;;;;;37.67;15.67;;;12.50;99.90;;;;;;4419979;28;661910;-76
2023/05/24 09:30:15;;;;;;;29.77;13.77;;;12.60;99.90;;;;;;4414561;28;660649;-74
2023/05/24 09:33:04;;;;;;;30.57;13.93;;;12.50;99.90;;;;;;4427188;28;661505;-74
2023/05/24 09:35:52;;;;;;;29.33;14.40;;;12.40;99.90;;;;;;4420813;28;661006;-75
2023/05/24 09:38:40;;;;;;;24.27;12.77;;;12.40;99.90;;;;;;4426951;28;660822;-74
2023/05/24 09:41:28;;;;;;;26.80;13.97;;;12.50;99.90;;;;;;4431947;28;662260;-76
2023/05/24 09:44:15;;;;;;;30.77;14.47;;;12.50;99.90;;;;;;4415397;28;660521;-74
2023/05/24 09:47:04;;;;;;;37.53;14.03;;;12.40;99.90;;;;;;4434113;28;662341;-75
2023/05/24 09:49:52;;;;;;;26.83;14.43;;;12.40;99.90;;;;;;4404754;28;661090;-74
2023/05/24 09:52:41;;;;;;;25.80;14.73;;;12.30;99.90;;;;;;4427743;28;660848;-73
2023/05/24 09:55:28;;;;;;;27.77;14.27;;;12.40;99.90;;;;;;4410483;28;661537;-75
2023/05/24 09:58:16;;;;;;;27.13;14.97;;;12.40;99.90;;;;;;4408060;28;660641;-74
2023/05/24 10:01:07;;;;;;;30.87;15.40;;;12.30;99.90;;;;;;4438349;28;660938;-74
2023/05/24 10:03:54;;;;;;;28.43;15.33;;;12.40;99.90;;;;;;4415391;28;661391;-74
2023/05/24 10:06:42;;;;;;;28.90;15.13;;;12.40;99.90;;;;;;4416055;28;662131;-73
2023/05/24 10:09:32;;;;;;;30.60;15.93;;;12.60;99.90;;;;;;4435861;28;660914;-77
2023/05/24 10:12:21;;;;;;;26.47;13.70;;;12.40;99.90;;;;;;4433204;28;660538;-73
2023/05/24 10:15:11;;;;;;;25.63;13.67;;;12.50;99.90;;;;;;4429502;28;660886;-74
2023/05/24 10:17:58;;;;;;;26.30;14.83;;;12.60;99.90;;;;;;4415771;28;661175;-76
2023/05/24 10:20:46;;;;;;;30.70;16.57;;;12.50;99.90;;;;;;4413234;28;661983;-75
2023/05/24 10:23:33;;;;;;;29.03;15.90;;;12.50;99.90;;;;;;4433973;28;661831;-74
2023/05/24 10:26:24;;;;;;;28.20;14.57;;;12.50;99.90;;;;;;4412891;28;661421;-74
2023/05/24 10:29:15;;;;;;;31.97;15.13;;;12.50;99.90;;;;;;4412824;28;661211;-72
2023/05/24 10:32:03;;;;;;;30.73;16.77;;;12.40;99.90;;;;;;4404439;28;664833;-73
2023/05/24 10:34:52;;;;;;;26.57;16.60;;;12.40;99.90;;;;;;4402332;28;660390;-71
2023/05/24 10:37:39;;;;;;;30.47;17.40;;;12.40;99.90;;;;;;4436419;28;660380;-73
2023/05/24 10:40:27;;;;;;;31.60;18.17;;;12.40;99.90;;;;;;4411895;28;661566;-73
2023/05/24 10:43:16;;;;;;;27.77;17.67;;;12.50;99.90;;;;;;4441020;28;660479;-74
2023/05/24 10:46:04;;;;;;;32.87;19.53;;;12.50;99.90;;;;;;4413227;28;662182;-73
2023/05/24 10:49:01;;;;;;;25.80;16.10;;;12.50;99.90;;;;;;4412583;28;661174;-70
2023/05/24 10:51:48;;;;;;;31.97;17.13;;;12.50;99.90;;;;;;4412959;28;662631;-72
2023/05/24 10:54:37;;;;;;;33.63;17.00;;;12.40;99.90;;;;;;4417823;28;661051;-72
2023/05/24 10:57:24;;;;;;;30.87;17.07;;;12.30;99.90;;;;;;4442932;28;661000;-73
2023/05/24 11:00:28;;;;;;;31.58;16.23;;;12.40;99.90;;;;;;4421541;28;660957;-73
2023/05/24 11:03:22;;;;;;;28.53;15.50;;;12.60;99.90;;;;;;4416905;28;660703;-72
2023/05/24 11:06:09;;;;;;;28.93;15.97;;;12.50;99.90;;;;;;4404320;28;661081;-74
2023/05/24 11:08:57;;;;;;;31.90;17.10;;;12.50;99.90;;;;;;4415690;28;660476;-73
2023/05/24 11:11:45;;;;;;;28.03;15.83;;;12.50;99.90;;;;;;4442459;28;660659;-72
2023/05/24 11:14:32;;;;;;;31.40;17.07;;;12.60;99.90;;;;;;4416035;28;663161;-72
2023/05/24 11:17:23;;;;;;;30.47;17.40;;;12.60;99.90;;;;;;4429734;28;660544;-73
2023/05/24 11:20:10;;;;;;;26.00;16.17;;;12.70;99.90;;;;;;4426542;28;661188;-74
2023/05/24 11:22:58;;;;;;;30.30;18.70;;;12.60;99.90;;;;;;4427893;28;662594;-74
2023/05/24 11:25:47;;;;;;;30.57;18.73;;;12.70;99.90;;;;;;4411964;28;660774;-74
2023/05/24 11:28:36;;;;;;;28.03;18.57;;;12.70;99.90;;;;;;4434960;28;662207;-72
2023/05/24 11:31:27;;;;;;;31.43;18.27;;;13.00;99.90;;;;;;4407664;28;661908;-73
2023/05/24 11:34:16;;;;;;;29.27;18.47;;;12.90;99.90;;;;;;4418241;28;661860;-74
2023/05/24 11:37:05;;;;;;;27.17;18.90;;;12.80;99.90;;;;;;4416070;28;662329;-74
2023/05/24 11:39:52;;;;;;;34.00;19.30;;;12.70;99.90;;;;;;4409544;28;661842;-74
2023/05/24 11:42:39;;;;;;;30.97;20.07;;;12.60;99.90;;;;;;4441579;28;660586;-74
2023/05/24 11:45:29;;;;;;;37.03;19.57;;;12.50;99.90;;;;;;4413055;28;661254;-75
2023/05/24 11:48:16;;;;;;;29.83;18.07;;;12.50;99.90;;;;;;4410039;28;660736;-73
2023/05/24 11:51:05;;;;;;;29.87;18.93;;;12.70;99.90;;;;;;4438717;28;661268;-73
2023/05/24 11:53:52;;;;;;;29.13;18.00;;;12.90;99.90;;;;;;4416944;28;662038;-73
2023/05/24 11:56:39;;;;;;;30.03;18.23;;;13.00;99.90;;;;;;4437412;28;660700;-73
2023/05/24 11:59:27;;;;;;;28.87;17.73;;;13.10;99.90;;;;;;4416389;28;660537;-73
2023/05/24 12:02:14;;;;;;;25.10;17.13;;;12.70;99.90;;;;;;4440434;28;660881;-73
2023/05/24 12:05:13;;;;;;;32.93;17.87;;;13.00;99.90;;;;;;4408288;28;662323;-74
2023/05/24 12:08:04;;;;;;;22.27;14.87;;;13.20;99.90;;;;;;4402002;28;661058;-74
2023/05/24 12:10:51;;;;;;;24.93;14.23;;;13.10;99.90;;;;;;4418356;28;660688;-74
2023/05/24 12:13:39;;;;;;;20.83;13.57;;;13.10;99.90;;;;;;4433322;28;660825;-73
2023/05/24 12:16:30;;;;;;;19.67;12.70;;;13.10;99.90;;;;;;4419089;28;660948;-72
2023/05/24 12:19:18;;;;;;;23.27;12.13;;;13.20;99.90;;;;;;4410379;28;662368;-74
2023/05/24 12:22:06;;;;;;;22.17;12.67;;;13.40;99.90;;;;;;4407461;28;660929;-74
2023/05/24 12:24:55;;;;;;;19.37;12.10;;;13.60;99.90;;;;;;4436675;28;660718;-74
2023/05/24 12:27:46;;;;;;;20.80;12.50;;;13.70;99.90;;;;;;4413692;28;662525;-74
2023/05/24 12:30:33;;;;;;;18.67;12.87;;;13.70;99.90;;;;;;4415401;28;661876;-74
2023/05/24 12:33:21;;;;;;;20.03;13.03;;;13.70;99.90;;;;;;4417381;28;661027;-73
2023/05/24 12:36:08;;;;;;;20.83;13.13;;;13.80;99.90;;;;;;4441975;28;661130;-74
2023/05/24 12:38:57;;;;;;;17.97;12.57;;;13.80;99.90;;;;;;4408906;28;660474;-73
2023/05/24 12:41:50;;;;;;;19.13;13.80;;;13.90;99.90;;;;;;4433375;28;660787;-73
2023/05/24 12:44:38;;;;;;;19.03;13.73;;;13.90;99.90;;;;;;4412997;28;662343;-74
2023/05/24 12:47:25;;;;;;;20.17;12.97;;;13.70;99.90;;;;;;4421895;28;660765;-74
2023/05/24 12:50:13;;;;;;;20.00;13.27;;;13.70;99.90;;;;;;4440849;28;661401;-75
2023/05/24 12:53:01;;;;;;;17.93;12.03;;;13.90;99.90;;;;;;4417648;28;660457;-73
2023/05/24 12:55:49;;;;;;;21.63;11.37;;;13.80;99.90;;;;;;4425544;28;661683;-74
2023/05/24 12:58:37;;;;;;;17.60;12.00;;;13.60;99.90;;;;;;4415585;28;660967;-73
2023/05/24 13:01:24;;;;;;;23.37;12.47;;;13.80;99.90;;;;;;4436003;28;661625;-74
2023/05/24 13:04:12;;;;;;;18.27;12.10;;;14.10;99.90;;;;;;4417787;28;661165;-74
2023/05/24 13:07:00;;;;;;;18.53;11.57;;;14.10;99.90;;;;;;4438150;28;660621;-74
2023/05/24 13:09:48;;;;;;;17.03;10.40;;;14.40;99.90;;;;;;4408220;28;661190;-74
2023/05/24 13:12:35;;;;;;;17.23;11.20;;;14.10;99.90;;;;;;4426468;28;660697;-71
2023/05/24 13:15:26;;;;;;;15.67;10.83;;;14.20;99.90;;;;;;4432763;28;662202;-74
2023/05/24 13:18:13;;;;;;;17.27;11.43;;;14.10;99.90;;;;;;4412317;28;660802;-75
2023/05/24 13:21:00;;;;;;;17.77;11.30;;;14.10;99.90;;;;;;4424630;28;660555;-74
2023/05/24 13:23:47;;;;;;;20.97;10.87;;;13.80;99.90;;;;;;4439290;28;660943;-74
2023/05/24 13:26:36;;;;;;;18.07;11.57;;;13.80;99.90;;;;;;4424319;28;661692;-73
2023/05/24 13:29:23;;;;;;;16.70;11.70;;;13.80;99.90;;;;;;4437565;28;660899;-74
2023/05/24 13:32:12;;;;;;;20.13;11.10;;;14.00;99.90;;;;;;4410757;28;661420;-74
2023/05/24 13:34:59;;;;;;;19.57;12.43;;;13.90;99.90;;;;;;4432422;28;661498;-75
2023/05/24 13:37:46;;;;;;;20.13;11.37;;;13.70;99.90;;;;;;4413332;28;660770;-74
2023/05/24 13:40:34;;;;;;;16.77;10.53;;;13.70;99.90;;;;;;4437007;28;661389;-74
2023/05/24 13:43:21;;;;;;;16.47;10.40;;;14.00;99.90;;;;;;4415024;28;661442;-75
2023/05/24 13:46:09;;;;;;;17.70;10.00;;;14.00;99.90;;;;;;4442046;28;661815;-74
2023/05/24 13:48:58;;;;;;;18.47;11.23;;;13.90;99.90;;;;;;4403351;28;661115;-75
2023/05/24 13:51:45;;;;;;;18.88;10.25;;;13.80;99.90;;;;;;4420323;28;660805;-74
2023/05/24 13:54:32;;;;;;;19.50;9.73;;;13.80;99.90;;;;;;4434446;28;661780;-74
2023/05/24 13:57:20;;;;;;;14.47;8.90;;;13.80;99.90;;;;;;4418415;28;660042;-74
2023/05/24 14:00:09;;;;;;;12.97;8.73;;;14.10;99.90;;;;;;4437476;28;660103;-74
2023/05/24 14:02:56;;;;;;;16.70;8.40;;;14.10;99.90;;;;;;4417448;28;659711;-74